Meteo Giornale » Osservazioni meteo Francia » Parigi-Orly

ore: 15:30 - Osservazioni Meteo Parigi-Orly
Lat. 48° 44' N Lon. 2° 24' E Alt. 89 metri s.l.m.

sereno Europe/Paris

15 °C

Sereno

Temp. 24 Ore

1 °C

17 °C

Sud/Sud-Ovest

16.7 Km/h

Dew point 3 °C

Umidità 44 %

Visibilità  10 Km

Il sole sorge alle ore 07:50

Il sole tramonta alle ore 18:17

Data e Ora Cielo e Fenomeni T °C DP °C Um. % Pres. hPa Vis. km Vento km/h
Oggi h: 15:30 sereno Sereno 15 3 44 1016 10 S/SO 16.7
Oggi h: 15:00 sereno Sereno 14 3 47 1016 10 S/SO 18.5
Oggi h: 14:30 sereno Sereno 15 3 44 1017 10 S 20.3
Oggi h: 13:30 sereno Sereno 14 3 47 1017 10 S 14.8
Oggi h: 13:00 sereno Sereno 13 3 50 1018 10 S/SO 18.5
Oggi h: 12:30 sereno Sereno 12 3 54 1018 10 O/SO 18.5
Oggi h: 12:00 sereno Sereno 11 3 57 1018 10 SO 16.7
Oggi h: 11:30 sereno Sereno 11 2 53 1018 10 S 11.1
Oggi h: 11:00 sereno Sereno 9 2 61 1019 10 S 7.4
Oggi h: 10:30 sereno Sereno 8 1 61 1019 10 S 7.4
Oggi h: 10:00 sereno Sereno 6 1 70 1019 10 S 7.4
Oggi h: 09:30 sereno Sereno 5 0 70 1019 10 N 5.5
Oggi h: 09:00 sereno Sereno 3 -0 80 1019 10 N 5.5
Oggi h: 08:30 sereno Sereno 2 0 86 1019 10 N 5.5
Oggi h: 08:00 sereno Sereno 1 -1 86 1019 10 S 7.4
Oggi h: 07:30 sereno Sereno 1 -1 86 1019 10 N 3.7
Oggi h: 07:00 sereno Sereno 1 -1 86 1019 10 N 3.7
Oggi h: 06:30 sereno Sereno 1 -1 86 1019 10 N 3.7
Oggi h: 06:00 sereno Sereno 2 -1 80 1019 10 N 3.7
Oggi h: 05:30 sereno Sereno 2 -1 80 1019 10 N 3.7
Oggi h: 05:00 sereno Sereno 3 -1 74 1019 10 N 5.5
Oggi h: 04:30 sereno Sereno 2 -1 80 1019 10 N 1.8
Oggi h: 04:00 sereno Sereno 3 -0 80 1019 10 N 1.8
Oggi h: 03:30 sereno Sereno 3 -1 74 1019 10 N 1.8
Oggi h: 03:00 sereno Sereno 4 -1 69 1019 10 N 0
Oggi h: 02:30 sereno Sereno 5 0 70 1019 10 N 3.7
Oggi h: 02:00 sereno Sereno 6 0 65 1019 10 N 3.7
Oggi h: 01:30 sereno Sereno 6 0 65 1019 10 N 1.8
Oggi h: 01:00 sereno Sereno 6 1 70 1019 10 N 5.5
Oggi h: 00:30 sereno Sereno 6 1 70 1019 10 N 3.7
Oggi h: 00:00 sereno Sereno 7 1 65 1019 10 N 1.8
Ieri h: 23:30 sereno Sereno 8 1 61 1020 10 N 5.5
Ieri h: 23:00 sereno Sereno 5 1 75 1019 10 N 0
Ieri h: 22:30 sereno Sereno 6 0 65 1020 10 N 1.8
Ieri h: 22:00 sereno Sereno 7 1 65 1020 10 N 0
Ieri h: 21:30 sereno Sereno 8 1 61 1020 10 N 1.8
Ieri h: 21:00 sereno Sereno 8 1 61 1020 10 N 5.5
Ieri h: 20:30 sereno Sereno 9 1 57 1020 10 N 3.7
Ieri h: 20:00 sereno Sereno 9 1 57 1020 10 N 5.5
Ieri h: 19:30 sereno Sereno 11 0 46 1019 10 SO 9.3
Ieri h: 19:00 sereno Sereno 13 1 43 1019 10 SO 7.4
Ieri h: 18:30 sereno Sereno 14 1 41 1019 10 SO 9.3
Ieri h: 18:00 sereno Sereno 15 1 38 1019 10 SO 11.1
Ieri h: 17:30 sereno Sereno 16 0 33 1019 10 SO 9.3
Ieri h: 17:00 sereno Sereno 17 -0 31 1019 10 S/SO 16.7
Ieri h: 16:30 sereno Sereno 17 -0 31 1019 10 S/SO 14.8
Ieri h: 16:00 sereno Sereno 17 -0 31 1019 10 S/SO 18.5